sensor_id;sensor_type;location;lat;lon;timestamp;P1;durP1;ratioP1;P2;durP2;ratioP2
11651;SDS011;5882;48.818;9.114;2022-12-07T00:01:45;3.70;;;3.05;;
11651;SDS011;5882;48.818;9.114;2022-12-07T00:04:13;3.58;;;3.17;;
11651;SDS011;5882;48.818;9.114;2022-12-07T00:06:40;3.20;;;2.90;;
11651;SDS011;5882;48.818;9.114;2022-12-07T00:09:09;3.78;;;3.47;;
11651;SDS011;5882;48.818;9.114;2022-12-07T00:11:36;4.22;;;3.13;;
11651;SDS011;5882;48.818;9.114;2022-12-07T00:14:06;4.72;;;3.60;;
11651;SDS011;5882;48.818;9.114;2022-12-07T00:16:33;3.45;;;3.15;;
11651;SDS011;5882;48.818;9.114;2022-12-07T00:19:00;3.78;;;3.30;;
11651;SDS011;5882;48.818;9.114;2022-12-07T00:21:28;3.40;;;3.00;;
11651;SDS011;5882;48.818;9.114;2022-12-07T00:23:55;3.20;;;2.95;;
11651;SDS011;5882;48.818;9.114;2022-12-07T00:26:22;3.50;;;3.20;;
11651;SDS011;5882;48.818;9.114;2022-12-07T00:28:50;3.72;;;3.10;;
11651;SDS011;5882;48.818;9.114;2022-12-07T00:31:19;3.97;;;3.58;;
11651;SDS011;5882;48.818;9.114;2022-12-07T00:33:46;4.65;;;3.45;;
11651;SDS011;5882;48.818;9.114;2022-12-07T00:36:13;4.50;;;3.63;;
11651;SDS011;5882;48.818;9.114;2022-12-07T00:38:40;4.47;;;3.67;;
11651;SDS011;5882;48.818;9.114;2022-12-07T00:41:09;4.55;;;3.88;;
11651;SDS011;5882;48.818;9.114;2022-12-07T00:43:36;3.83;;;3.20;;
11651;SDS011;5882;48.818;9.114;2022-12-07T00:46:03;3.92;;;3.55;;
11651;SDS011;5882;48.818;9.114;2022-12-07T00:48:31;3.85;;;3.47;;
11651;SDS011;5882;48.818;9.114;2022-12-07T00:50:58;3.72;;;3.28;;
11651;SDS011;5882;48.818;9.114;2022-12-07T00:53:24;6.07;;;4.05;;
11651;SDS011;5882;48.818;9.114;2022-12-07T00:55:51;4.20;;;3.80;;
11651;SDS011;5882;48.818;9.114;2022-12-07T00:58:18;4.97;;;3.67;;
11651;SDS011;5882;48.818;9.114;2022-12-07T01:00:45;4.05;;;3.65;;
11651;SDS011;5882;48.818;9.114;2022-12-07T01:03:12;3.35;;;3.05;;
11651;SDS011;5882;48.818;9.114;2022-12-07T01:08:54;4.20;;;3.38;;
11651;SDS011;5882;48.818;9.114;2022-12-07T01:11:21;3.95;;;3.38;;
11651;SDS011;5882;48.818;9.114;2022-12-07T01:13:49;3.92;;;3.47;;
11651;SDS011;5882;48.818;9.114;2022-12-07T01:16:16;6.47;;;3.67;;
11651;SDS011;5882;48.818;9.114;2022-12-07T01:18:45;4.70;;;3.53;;
11651;SDS011;5882;48.818;9.114;2022-12-07T01:21:13;4.00;;;3.38;;
11651;SDS011;5882;48.818;9.114;2022-12-07T01:23:40;4.95;;;3.65;;
11651;SDS011;5882;48.818;9.114;2022-12-07T01:26:09;4.63;;;3.70;;
11651;SDS011;5882;48.818;9.114;2022-12-07T01:28:37;3.92;;;3.38;;
11651;SDS011;5882;48.818;9.114;2022-12-07T01:31:06;4.10;;;3.38;;
11651;SDS011;5882;48.818;9.114;2022-12-07T01:33:33;3.72;;;3.35;;
11651;SDS011;5882;48.818;9.114;2022-12-07T01:36:01;4.50;;;4.07;;
11651;SDS011;5882;48.818;9.114;2022-12-07T01:38:28;3.92;;;3.22;;
11651;SDS011;5882;48.818;9.114;2022-12-07T01:40:56;4.15;;;3.75;;
11651;SDS011;5882;48.818;9.114;2022-12-07T01:43:24;5.53;;;3.65;;
11651;SDS011;5882;48.818;9.114;2022-12-07T01:45:52;5.15;;;3.60;;
11651;SDS011;5882;48.818;9.114;2022-12-07T01:48:19;4.45;;;3.67;;
11651;SDS011;5882;48.818;9.114;2022-12-07T01:50:48;4.05;;;3.65;;
11651;SDS011;5882;48.818;9.114;2022-12-07T01:53:16;5.63;;;3.72;;
11651;SDS011;5882;48.818;9.114;2022-12-07T01:55:44;4.05;;;3.53;;
11651;SDS011;5882;48.818;9.114;2022-12-07T01:58:12;3.47;;;3.13;;
11651;SDS011;5882;48.818;9.114;2022-12-07T02:00:40;6.20;;;3.63;;
11651;SDS011;5882;48.818;9.114;2022-12-07T02:03:08;5.32;;;3.42;;
11651;SDS011;5882;48.818;9.114;2022-12-07T02:05:37;4.13;;;3.58;;
11651;SDS011;5882;48.818;9.114;2022-12-07T02:08:04;4.00;;;3.60;;
11651;SDS011;5882;48.818;9.114;2022-12-07T02:10:31;5.78;;;3.85;;
11651;SDS011;5882;48.818;9.114;2022-12-07T02:12:59;4.88;;;4.03;;
11651;SDS011;5882;48.818;9.114;2022-12-07T02:15:29;4.70;;;3.65;;
11651;SDS011;5882;48.818;9.114;2022-12-07T02:18:04;4.75;;;3.95;;
11651;SDS011;5882;48.818;9.114;2022-12-07T02:20:32;4.13;;;3.55;;
11651;SDS011;5882;48.818;9.114;2022-12-07T02:25:55;4.13;;;3.58;;
11651;SDS011;5882;48.818;9.114;2022-12-07T02:28:26;5.20;;;3.03;;
11651;SDS011;5882;48.818;9.114;2022-12-07T02:30:55;5.15;;;3.67;;
11651;SDS011;5882;48.818;9.114;2022-12-07T02:33:24;4.22;;;3.63;;
11651;SDS011;5882;48.818;9.114;2022-12-07T02:35:53;4.00;;;3.58;;
11651;SDS011;5882;48.818;9.114;2022-12-07T02:38:23;3.28;;;2.97;;
11651;SDS011;5882;48.818;9.114;2022-12-07T02:40:53;3.60;;;3.25;;
11651;SDS011;5882;48.818;9.114;2022-12-07T02:43:21;5.80;;;4.20;;
11651;SDS011;5882;48.818;9.114;2022-12-07T02:45:49;5.10;;;3.60;;
11651;SDS011;5882;48.818;9.114;2022-12-07T02:48:19;4.28;;;3.28;;
11651;SDS011;5882;48.818;9.114;2022-12-07T02:50:48;3.83;;;3.47;;
11651;SDS011;5882;48.818;9.114;2022-12-07T02:53:33;4.32;;;3.63;;
11651;SDS011;5882;48.818;9.114;2022-12-07T02:56:01;4.00;;;3.22;;
11651;SDS011;5882;48.818;9.114;2022-12-07T02:58:32;4.93;;;3.65;;
11651;SDS011;5882;48.818;9.114;2022-12-07T03:01:04;6.18;;;4.45;;
11651;SDS011;5882;48.818;9.114;2022-12-07T03:03:36;4.25;;;3.50;;
11651;SDS011;5882;48.818;9.114;2022-12-07T03:06:06;5.60;;;3.88;;
11651;SDS011;5882;48.818;9.114;2022-12-07T03:08:38;6.80;;;4.47;;
11651;SDS011;5882;48.818;9.114;2022-12-07T03:11:09;5.47;;;3.78;;
11651;SDS011;5882;48.818;9.114;2022-12-07T03:13:38;5.78;;;4.10;;
11651;SDS011;5882;48.818;9.114;2022-12-07T03:16:08;5.90;;;4.55;;
11651;SDS011;5882;48.818;9.114;2022-12-07T03:18:38;4.30;;;3.33;;
11651;SDS011;5882;48.818;9.114;2022-12-07T03:21:06;5.32;;;4.00;;
11651;SDS011;5882;48.818;9.114;2022-12-07T03:23:35;4.45;;;3.88;;
11651;SDS011;5882;48.818;9.114;2022-12-07T03:26:03;4.38;;;3.65;;
11651;SDS011;5882;48.818;9.114;2022-12-07T03:28:31;4.38;;;3.42;;
11651;SDS011;5882;48.818;9.114;2022-12-07T03:31:00;3.53;;;3.05;;
11651;SDS011;5882;48.818;9.114;2022-12-07T03:33:29;4.57;;;3.80;;
11651;SDS011;5882;48.818;9.114;2022-12-07T03:36:00;4.00;;;3.28;;
11651;SDS011;5882;48.818;9.114;2022-12-07T03:38:28;4.05;;;3.30;;
11651;SDS011;5882;48.818;9.114;2022-12-07T03:40:58;5.63;;;3.97;;
11651;SDS011;5882;48.818;9.114;2022-12-07T03:43:27;4.28;;;3.58;;
11651;SDS011;5882;48.818;9.114;2022-12-07T03:45:56;5.95;;;3.72;;
11651;SDS011;5882;48.818;9.114;2022-12-07T03:48:25;4.20;;;3.72;;
11651;SDS011;5882;48.818;9.114;2022-12-07T03:50:54;4.03;;;3.35;;
11651;SDS011;5882;48.818;9.114;2022-12-07T03:53:24;4.63;;;3.70;;
11651;SDS011;5882;48.818;9.114;2022-12-07T03:55:56;4.25;;;3.42;;
11651;SDS011;5882;48.818;9.114;2022-12-07T03:58:23;4.47;;;3.55;;
11651;SDS011;5882;48.818;9.114;2022-12-07T04:00:50;3.83;;;3.45;;
11651;SDS011;5882;48.818;9.114;2022-12-07T04:03:17;4.15;;;3.15;;
11651;SDS011;5882;48.818;9.114;2022-12-07T04:05:44;4.28;;;3.40;;
11651;SDS011;5882;48.818;9.114;2022-12-07T04:08:10;4.05;;;3.58;;
11651;SDS011;5882;48.818;9.114;2022-12-07T04:10:38;4.00;;;3.38;;
11651;SDS011;5882;48.818;9.114;2022-12-07T04:13:05;4.75;;;3.85;;
11651;SDS011;5882;48.818;9.114;2022-12-07T04:15:32;5.50;;;3.30;;
11651;SDS011;5882;48.818;9.114;2022-12-07T04:17:58;3.95;;;3.42;;
11651;SDS011;5882;48.818;9.114;2022-12-07T04:20:25;3.65;;;3.17;;
11651;SDS011;5882;48.818;9.114;2022-12-07T04:22:51;3.53;;;3.10;;
11651;SDS011;5882;48.818;9.114;2022-12-07T04:25:18;4.88;;;3.08;;
11651;SDS011;5882;48.818;9.114;2022-12-07T04:27:46;3.38;;;2.85;;
11651;SDS011;5882;48.818;9.114;2022-12-07T04:30:12;2.45;;;2.10;;
11651;SDS011;5882;48.818;9.114;2022-12-07T04:32:39;2.83;;;2.50;;
11651;SDS011;5882;48.818;9.114;2022-12-07T04:35:06;2.72;;;2.20;;
11651;SDS011;5882;48.818;9.114;2022-12-07T04:37:32;2.30;;;2.08;;
11651;SDS011;5882;48.818;9.114;2022-12-07T04:39:59;2.55;;;2.17;;
11651;SDS011;5882;48.818;9.114;2022-12-07T04:42:26;1.90;;;1.80;;
11651;SDS011;5882;48.818;9.114;2022-12-07T04:44:54;1.98;;;1.80;;
11651;SDS011;5882;48.818;9.114;2022-12-07T04:47:20;2.70;;;2.15;;
11651;SDS011;5882;48.818;9.114;2022-12-07T04:49:47;2.93;;;1.87;;
11651;SDS011;5882;48.818;9.114;2022-12-07T04:52:14;3.00;;;2.50;;
11651;SDS011;5882;48.818;9.114;2022-12-07T04:54:40;2.85;;;2.42;;
11651;SDS011;5882;48.818;9.114;2022-12-07T04:57:07;3.88;;;2.33;;
11651;SDS011;5882;48.818;9.114;2022-12-07T04:59:33;2.00;;;1.90;;
11651;SDS011;5882;48.818;9.114;2022-12-07T05:02:01;1.90;;;1.80;;
11651;SDS011;5882;48.818;9.114;2022-12-07T05:04:28;2.47;;;2.10;;
11651;SDS011;5882;48.818;9.114;2022-12-07T05:06:55;4.43;;;1.90;;
11651;SDS011;5882;48.818;9.114;2022-12-07T05:09:21;2.35;;;2.10;;
11651;SDS011;5882;48.818;9.114;2022-12-07T05:11:51;4.05;;;2.33;;
11651;SDS011;5882;48.818;9.114;2022-12-07T05:14:18;4.30;;;2.78;;
11651;SDS011;5882;48.818;9.114;2022-12-07T05:16:46;2.67;;;2.42;;
11651;SDS011;5882;48.818;9.114;2022-12-07T05:19:16;2.83;;;2.33;;
11651;SDS011;5882;48.818;9.114;2022-12-07T05:21:43;2.70;;;2.42;;
11651;SDS011;5882;48.818;9.114;2022-12-07T05:24:10;6.22;;;3.20;;
11651;SDS011;5882;48.818;9.114;2022-12-07T05:26:38;3.60;;;3.08;;
11651;SDS011;5882;48.818;9.114;2022-12-07T05:29:10;4.70;;;2.80;;
11651;SDS011;5882;48.818;9.114;2022-12-07T05:31:36;3.55;;;2.65;;
11651;SDS011;5882;48.818;9.114;2022-12-07T05:34:03;3.17;;;2.85;;
11651;SDS011;5882;48.818;9.114;2022-12-07T05:36:31;2.80;;;2.38;;
11651;SDS011;5882;48.818;9.114;2022-12-07T05:38:58;3.60;;;3.10;;
11651;SDS011;5882;48.818;9.114;2022-12-07T05:41:24;3.38;;;2.58;;
11651;SDS011;5882;48.818;9.114;2022-12-07T05:44:08;4.07;;;2.77;;
11651;SDS011;5882;48.818;9.114;2022-12-07T05:46:35;5.05;;;2.80;;
11651;SDS011;5882;48.818;9.114;2022-12-07T05:49:01;3.42;;;2.70;;
11651;SDS011;5882;48.818;9.114;2022-12-07T05:51:28;3.80;;;3.10;;
11651;SDS011;5882;48.818;9.114;2022-12-07T05:53:56;4.87;;;3.20;;
11651;SDS011;5882;48.818;9.114;2022-12-07T05:56:22;4.10;;;2.80;;
11651;SDS011;5882;48.818;9.114;2022-12-07T05:58:49;2.53;;;2.25;;
11651;SDS011;5882;48.818;9.114;2022-12-07T06:01:33;5.03;;;3.20;;
11651;SDS011;5882;48.818;9.114;2022-12-07T06:03:59;3.42;;;3.13;;
11651;SDS011;5882;48.818;9.114;2022-12-07T06:06:26;4.35;;;3.17;;
11651;SDS011;5882;48.818;9.114;2022-12-07T06:08:53;3.55;;;2.75;;
11651;SDS011;5882;48.818;9.114;2022-12-07T06:11:21;3.17;;;2.85;;
11651;SDS011;5882;48.818;9.114;2022-12-07T06:14:01;3.80;;;3.00;;
11651;SDS011;5882;48.818;9.114;2022-12-07T06:16:28;3.22;;;2.78;;
11651;SDS011;5882;48.818;9.114;2022-12-07T06:18:54;4.18;;;3.25;;
11651;SDS011;5882;48.818;9.114;2022-12-07T06:21:21;3.88;;;3.20;;
11651;SDS011;5882;48.818;9.114;2022-12-07T06:23:47;3.63;;;3.33;;
11651;SDS011;5882;48.818;9.114;2022-12-07T06:26:14;4.20;;;2.88;;
11651;SDS011;5882;48.818;9.114;2022-12-07T06:28:42;3.60;;;2.83;;
11651;SDS011;5882;48.818;9.114;2022-12-07T06:31:09;4.13;;;3.58;;
11651;SDS011;5882;48.818;9.114;2022-12-07T06:33:35;4.40;;;3.30;;
11651;SDS011;5882;48.818;9.114;2022-12-07T06:36:02;3.72;;;3.13;;
11651;SDS011;5882;48.818;9.114;2022-12-07T06:38:29;3.33;;;2.70;;
11651;SDS011;5882;48.818;9.114;2022-12-07T06:40:55;3.35;;;3.03;;
11651;SDS011;5882;48.818;9.114;2022-12-07T06:43:22;3.65;;;2.67;;
11651;SDS011;5882;48.818;9.114;2022-12-07T06:45:50;3.28;;;2.63;;
11651;SDS011;5882;48.818;9.114;2022-12-07T06:48:17;2.65;;;2.45;;
11651;SDS011;5882;48.818;9.114;2022-12-07T06:50:44;2.72;;;2.47;;
11651;SDS011;5882;48.818;9.114;2022-12-07T06:53:11;3.10;;;2.80;;
11651;SDS011;5882;48.818;9.114;2022-12-07T06:55:37;4.70;;;3.20;;
11651;SDS011;5882;48.818;9.114;2022-12-07T06:58:04;2.88;;;2.35;;
11651;SDS011;5882;48.818;9.114;2022-12-07T07:00:37;2.90;;;2.70;;
11651;SDS011;5882;48.818;9.114;2022-12-07T07:03:10;3.08;;;2.40;;
11651;SDS011;5882;48.818;9.114;2022-12-07T07:05:37;3.78;;;2.55;;
11651;SDS011;5882;48.818;9.114;2022-12-07T07:08:04;3.35;;;2.95;;
11651;SDS011;5882;48.818;9.114;2022-12-07T07:10:31;2.70;;;2.47;;
11651;SDS011;5882;48.818;9.114;2022-12-07T07:13:00;4.78;;;3.03;;
11651;SDS011;5882;48.818;9.114;2022-12-07T07:15:27;2.60;;;2.40;;
11651;SDS011;5882;48.818;9.114;2022-12-07T07:17:54;2.75;;;2.38;;
11651;SDS011;5882;48.818;9.114;2022-12-07T07:20:22;3.33;;;2.55;;
11651;SDS011;5882;48.818;9.114;2022-12-07T07:22:49;2.90;;;2.50;;
11651;SDS011;5882;48.818;9.114;2022-12-07T07:25:17;2.45;;;2.22;;
11651;SDS011;5882;48.818;9.114;2022-12-07T07:27:44;4.05;;;2.83;;
11651;SDS011;5882;48.818;9.114;2022-12-07T07:30:11;2.90;;;2.42;;
11651;SDS011;5882;48.818;9.114;2022-12-07T07:32:38;3.38;;;2.42;;
11651;SDS011;5882;48.818;9.114;2022-12-07T07:35:06;3.37;;;2.63;;
11651;SDS011;5882;48.818;9.114;2022-12-07T07:37:35;2.78;;;2.33;;
11651;SDS011;5882;48.818;9.114;2022-12-07T07:40:03;2.67;;;2.38;;
11651;SDS011;5882;48.818;9.114;2022-12-07T07:42:30;2.38;;;2.13;;
11651;SDS011;5882;48.818;9.114;2022-12-07T07:44:57;2.15;;;1.90;;
11651;SDS011;5882;48.818;9.114;2022-12-07T07:47:24;2.53;;;2.33;;
11651;SDS011;5882;48.818;9.114;2022-12-07T07:49:50;3.30;;;2.42;;
11651;SDS011;5882;48.818;9.114;2022-12-07T07:52:17;3.50;;;2.65;;
11651;SDS011;5882;48.818;9.114;2022-12-07T07:55:01;3.55;;;2.63;;
11651;SDS011;5882;48.818;9.114;2022-12-07T07:57:34;3.10;;;2.30;;
11651;SDS011;5882;48.818;9.114;2022-12-07T08:00:01;3.13;;;2.60;;
11651;SDS011;5882;48.818;9.114;2022-12-07T08:02:29;3.17;;;2.47;;
11651;SDS011;5882;48.818;9.114;2022-12-07T08:04:58;2.95;;;2.55;;
11651;SDS011;5882;48.818;9.114;2022-12-07T08:07:25;4.13;;;2.63;;
11651;SDS011;5882;48.818;9.114;2022-12-07T08:09:54;3.45;;;2.63;;
11651;SDS011;5882;48.818;9.114;2022-12-07T08:12:21;3.83;;;3.08;;
11651;SDS011;5882;48.818;9.114;2022-12-07T08:14:48;3.30;;;2.58;;
11651;SDS011;5882;48.818;9.114;2022-12-07T08:17:14;3.53;;;2.80;;
11651;SDS011;5882;48.818;9.114;2022-12-07T08:19:43;3.55;;;2.85;;
11651;SDS011;5882;48.818;9.114;2022-12-07T08:22:09;3.05;;;2.60;;
11651;SDS011;5882;48.818;9.114;2022-12-07T08:24:36;3.67;;;2.47;;
11651;SDS011;5882;48.818;9.114;2022-12-07T08:27:04;3.05;;;2.33;;
11651;SDS011;5882;48.818;9.114;2022-12-07T08:29:31;2.38;;;2.03;;
11651;SDS011;5882;48.818;9.114;2022-12-07T08:31:58;3.95;;;2.50;;
11651;SDS011;5882;48.818;9.114;2022-12-07T08:34:26;3.15;;;2.70;;
11651;SDS011;5882;48.818;9.114;2022-12-07T08:36:55;3.30;;;2.65;;
11651;SDS011;5882;48.818;9.114;2022-12-07T08:39:22;5.10;;;2.65;;
11651;SDS011;5882;48.818;9.114;2022-12-07T08:41:48;3.67;;;2.70;;
11651;SDS011;5882;48.818;9.114;2022-12-07T08:44:16;2.85;;;2.53;;
11651;SDS011;5882;48.818;9.114;2022-12-07T08:46:44;3.22;;;2.33;;
11651;SDS011;5882;48.818;9.114;2022-12-07T08:49:12;2.55;;;2.28;;
11651;SDS011;5882;48.818;9.114;2022-12-07T08:51:39;3.10;;;2.60;;
11651;SDS011;5882;48.818;9.114;2022-12-07T08:54:07;2.53;;;2.33;;
11651;SDS011;5882;48.818;9.114;2022-12-07T08:56:35;3.22;;;2.42;;
11651;SDS011;5882;48.818;9.114;2022-12-07T08:59:03;3.38;;;2.55;;
11651;SDS011;5882;48.818;9.114;2022-12-07T09:01:32;3.03;;;2.40;;
11651;SDS011;5882;48.818;9.114;2022-12-07T09:04:04;2.97;;;2.25;;
11651;SDS011;5882;48.818;9.114;2022-12-07T09:06:32;2.50;;;2.30;;
11651;SDS011;5882;48.818;9.114;2022-12-07T09:09:03;2.95;;;2.47;;
11651;SDS011;5882;48.818;9.114;2022-12-07T09:11:30;2.75;;;2.40;;
11651;SDS011;5882;48.818;9.114;2022-12-07T09:13:56;4.03;;;2.72;;
11651;SDS011;5882;48.818;9.114;2022-12-07T09:16:23;2.40;;;2.20;;
11651;SDS011;5882;48.818;9.114;2022-12-07T09:21:44;2.40;;;2.17;;
11651;SDS011;5882;48.818;9.114;2022-12-07T09:24:30;2.95;;;2.30;;
11651;SDS011;5882;48.818;9.114;2022-12-07T09:27:04;3.30;;;2.20;;
11651;SDS011;5882;48.818;9.114;2022-12-07T09:29:40;2.92;;;2.03;;
11651;SDS011;5882;48.818;9.114;2022-12-07T09:32:08;2.75;;;2.35;;
11651;SDS011;5882;48.818;9.114;2022-12-07T09:34:40;2.13;;;1.92;;
11651;SDS011;5882;48.818;9.114;2022-12-07T09:37:19;2.40;;;2.20;;
11651;SDS011;5882;48.818;9.114;2022-12-07T09:39:55;3.15;;;2.45;;
11651;SDS011;5882;48.818;9.114;2022-12-07T09:42:29;2.70;;;2.10;;
11651;SDS011;5882;48.818;9.114;2022-12-07T09:44:58;2.65;;;2.33;;
11651;SDS011;5882;48.818;9.114;2022-12-07T09:47:27;2.88;;;2.05;;
11651;SDS011;5882;48.818;9.114;2022-12-07T09:49:55;3.60;;;1.95;;
11651;SDS011;5882;48.818;9.114;2022-12-07T09:52:28;2.58;;;1.88;;
11651;SDS011;5882;48.818;9.114;2022-12-07T09:54:55;3.03;;;2.22;;
11651;SDS011;5882;48.818;9.114;2022-12-07T09:57:25;2.83;;;2.30;;
11651;SDS011;5882;48.818;9.114;2022-12-07T09:59:59;3.25;;;2.28;;
11651;SDS011;5882;48.818;9.114;2022-12-07T10:02:34;2.72;;;2.40;;
11651;SDS011;5882;48.818;9.114;2022-12-07T10:05:04;2.17;;;1.98;;
11651;SDS011;5882;48.818;9.114;2022-12-07T10:07:38;2.80;;;2.28;;
11651;SDS011;5882;48.818;9.114;2022-12-07T10:10:18;2.00;;;1.75;;
11651;SDS011;5882;48.818;9.114;2022-12-07T10:12:54;3.20;;;2.20;;
11651;SDS011;5882;48.818;9.114;2022-12-07T10:15:42;3.45;;;2.15;;
11651;SDS011;5882;48.818;9.114;2022-12-07T10:18:20;3.08;;;2.40;;
11651;SDS011;5882;48.818;9.114;2022-12-07T10:26:49;3.28;;;2.20;;
11651;SDS011;5882;48.818;9.114;2022-12-07T10:29:24;2.53;;;2.13;;
11651;SDS011;5882;48.818;9.114;2022-12-07T10:32:03;2.40;;;1.85;;
11651;SDS011;5882;48.818;9.114;2022-12-07T10:34:35;3.67;;;1.98;;
11651;SDS011;5882;48.818;9.114;2022-12-07T10:37:15;2.53;;;2.33;;
11651;SDS011;5882;48.818;9.114;2022-12-07T10:39:42;1.95;;;1.85;;
11651;SDS011;5882;48.818;9.114;2022-12-07T10:42:19;2.20;;;2.00;;
11651;SDS011;5882;48.818;9.114;2022-12-07T10:44:47;2.42;;;2.13;;
11651;SDS011;5882;48.818;9.114;2022-12-07T10:47:22;2.40;;;1.80;;
11651;SDS011;5882;48.818;9.114;2022-12-07T10:50:14;1.88;;;1.73;;
11651;SDS011;5882;48.818;9.114;2022-12-07T10:52:55;3.92;;;1.50;;
11651;SDS011;5882;48.818;9.114;2022-12-07T10:55:26;1.60;;;1.48;;
11651;SDS011;5882;48.818;9.114;2022-12-07T11:00:54;1.50;;;1.40;;
11651;SDS011;5882;48.818;9.114;2022-12-07T11:03:38;1.50;;;1.40;;
11651;SDS011;5882;48.818;9.114;2022-12-07T11:06:10;1.70;;;1.60;;
11651;SDS011;5882;48.818;9.114;2022-12-07T11:09:06;2.85;;;1.90;;
11651;SDS011;5882;48.818;9.114;2022-12-07T11:11:59;1.38;;;1.27;;
11651;SDS011;5882;48.818;9.114;2022-12-07T11:14:29;1.30;;;1.20;;
11651;SDS011;5882;48.818;9.114;2022-12-07T11:17:04;1.13;;;1.10;;
11651;SDS011;5882;48.818;9.114;2022-12-07T11:19:43;1.48;;;1.30;;
11651;SDS011;5882;48.818;9.114;2022-12-07T11:22:17;2.30;;;1.63;;
11651;SDS011;5882;48.818;9.114;2022-12-07T11:24:48;1.52;;;1.42;;
11651;SDS011;5882;48.818;9.114;2022-12-07T11:31:16;1.70;;;1.60;;
11651;SDS011;5882;48.818;9.114;2022-12-07T14:56:52;3.13;;;2.53;;
11651;SDS011;5882;48.818;9.114;2022-12-07T14:59:22;4.90;;;2.63;;
11651;SDS011;5882;48.818;9.114;2022-12-07T15:01:49;2.72;;;2.42;;
11651;SDS011;5882;48.818;9.114;2022-12-07T15:04:19;3.55;;;2.60;;
11651;SDS011;5882;48.818;9.114;2022-12-07T15:06:54;3.83;;;2.83;;
11651;SDS011;5882;48.818;9.114;2022-12-07T15:09:21;2.83;;;2.38;;
11651;SDS011;5882;48.818;9.114;2022-12-07T15:11:51;4.35;;;3.03;;
11651;SDS011;5882;48.818;9.114;2022-12-07T15:14:21;3.03;;;2.33;;
11651;SDS011;5882;48.818;9.114;2022-12-07T15:16:48;3.65;;;2.45;;
11651;SDS011;5882;48.818;9.114;2022-12-07T15:19:15;3.17;;;2.50;;
11651;SDS011;5882;48.818;9.114;2022-12-07T15:21:42;2.90;;;2.70;;
11651;SDS011;5882;48.818;9.114;2022-12-07T15:24:12;4.45;;;2.75;;
11651;SDS011;5882;48.818;9.114;2022-12-07T15:26:41;4.20;;;3.10;;
11651;SDS011;5882;48.818;9.114;2022-12-07T15:29:10;3.20;;;2.30;;
11651;SDS011;5882;48.818;9.114;2022-12-07T15:31:37;3.63;;;2.83;;
11651;SDS011;5882;48.818;9.114;2022-12-07T15:34:06;5.50;;;2.92;;
11651;SDS011;5882;48.818;9.114;2022-12-07T15:36:33;4.22;;;3.50;;
11651;SDS011;5882;48.818;9.114;2022-12-07T15:39:03;4.00;;;3.03;;
11651;SDS011;5882;48.818;9.114;2022-12-07T15:41:29;5.20;;;3.58;;
11651;SDS011;5882;48.818;9.114;2022-12-07T15:43:56;3.33;;;2.90;;
11651;SDS011;5882;48.818;9.114;2022-12-07T15:46:49;4.30;;;3.85;;
11651;SDS011;5882;48.818;9.114;2022-12-07T15:49:17;4.47;;;3.08;;
11651;SDS011;5882;48.818;9.114;2022-12-07T15:51:44;6.32;;;4.03;;
11651;SDS011;5882;48.818;9.114;2022-12-07T15:54:16;4.30;;;3.50;;
11651;SDS011;5882;48.818;9.114;2022-12-07T15:56:47;5.35;;;3.65;;
11651;SDS011;5882;48.818;9.114;2022-12-07T15:59:17;5.75;;;3.38;;
11651;SDS011;5882;48.818;9.114;2022-12-07T16:01:44;5.90;;;4.28;;
11651;SDS011;5882;48.818;9.114;2022-12-07T16:04:12;6.72;;;4.13;;
11651;SDS011;5882;48.818;9.114;2022-12-07T16:06:40;5.50;;;3.88;;
11651;SDS011;5882;48.818;9.114;2022-12-07T16:09:07;6.65;;;4.20;;
11651;SDS011;5882;48.818;9.114;2022-12-07T16:11:35;6.65;;;4.32;;
11651;SDS011;5882;48.818;9.114;2022-12-07T16:14:04;7.38;;;4.90;;
11651;SDS011;5882;48.818;9.114;2022-12-07T16:16:31;5.30;;;4.18;;
11651;SDS011;5882;48.818;9.114;2022-12-07T16:18:58;6.28;;;4.40;;
11651;SDS011;5882;48.818;9.114;2022-12-07T16:21:26;6.40;;;4.43;;
11651;SDS011;5882;48.818;9.114;2022-12-07T16:23:53;4.68;;;4.00;;
11651;SDS011;5882;48.818;9.114;2022-12-07T16:26:20;6.13;;;3.92;;
11651;SDS011;5882;48.818;9.114;2022-12-07T16:28:48;6.13;;;4.05;;
11651;SDS011;5882;48.818;9.114;2022-12-07T16:31:15;4.63;;;3.53;;
11651;SDS011;5882;48.818;9.114;2022-12-07T16:33:42;5.47;;;3.55;;
11651;SDS011;5882;48.818;9.114;2022-12-07T16:36:10;5.40;;;3.97;;
11651;SDS011;5882;48.818;9.114;2022-12-07T16:38:39;5.18;;;4.07;;
11651;SDS011;5882;48.818;9.114;2022-12-07T16:41:06;4.90;;;3.97;;
11651;SDS011;5882;48.818;9.114;2022-12-07T16:43:33;5.80;;;4.22;;
11651;SDS011;5882;48.818;9.114;2022-12-07T16:46:00;4.88;;;3.72;;
11651;SDS011;5882;48.818;9.114;2022-12-07T16:48:27;4.50;;;3.67;;
11651;SDS011;5882;48.818;9.114;2022-12-07T16:50:54;5.25;;;4.10;;
11651;SDS011;5882;48.818;9.114;2022-12-07T16:53:23;4.38;;;3.63;;
11651;SDS011;5882;48.818;9.114;2022-12-07T16:55:51;5.35;;;3.53;;
11651;SDS011;5882;48.818;9.114;2022-12-07T16:58:18;6.97;;;4.38;;
11651;SDS011;5882;48.818;9.114;2022-12-07T17:00:48;4.93;;;3.35;;
11651;SDS011;5882;48.818;9.114;2022-12-07T17:03:15;5.28;;;3.83;;
11651;SDS011;5882;48.818;9.114;2022-12-07T17:05:43;4.65;;;3.95;;
11651;SDS011;5882;48.818;9.114;2022-12-07T17:08:10;6.10;;;3.80;;
11651;SDS011;5882;48.818;9.114;2022-12-07T17:10:38;6.45;;;4.25;;
11651;SDS011;5882;48.818;9.114;2022-12-07T17:13:06;5.82;;;3.58;;
11651;SDS011;5882;48.818;9.114;2022-12-07T17:15:53;4.50;;;3.55;;
11651;SDS011;5882;48.818;9.114;2022-12-07T17:18:20;5.00;;;3.30;;
11651;SDS011;5882;48.818;9.114;2022-12-07T17:20:47;4.68;;;3.83;;
11651;SDS011;5882;48.818;9.114;2022-12-07T17:23:13;3.45;;;3.08;;
11651;SDS011;5882;48.818;9.114;2022-12-07T17:25:40;7.53;;;4.63;;
11651;SDS011;5882;48.818;9.114;2022-12-07T17:28:08;4.65;;;3.22;;
11651;SDS011;5882;48.818;9.114;2022-12-07T17:30:35;5.00;;;3.40;;
11651;SDS011;5882;48.818;9.114;2022-12-07T17:33:01;5.32;;;3.95;;
11651;SDS011;5882;48.818;9.114;2022-12-07T17:35:28;5.95;;;4.53;;
11651;SDS011;5882;48.818;9.114;2022-12-07T17:37:54;5.75;;;4.50;;
11651;SDS011;5882;48.818;9.114;2022-12-07T17:40:24;7.65;;;5.28;;
11651;SDS011;5882;48.818;9.114;2022-12-07T17:42:51;6.50;;;4.55;;
11651;SDS011;5882;48.818;9.114;2022-12-07T17:45:19;6.25;;;4.18;;
11651;SDS011;5882;48.818;9.114;2022-12-07T17:47:46;6.30;;;4.57;;
11651;SDS011;5882;48.818;9.114;2022-12-07T17:50:12;6.40;;;4.88;;
11651;SDS011;5882;48.818;9.114;2022-12-07T17:52:39;6.10;;;4.75;;
11651;SDS011;5882;48.818;9.114;2022-12-07T17:55:23;7.38;;;4.50;;
11651;SDS011;5882;48.818;9.114;2022-12-07T17:57:50;7.80;;;5.00;;
11651;SDS011;5882;48.818;9.114;2022-12-07T18:00:19;8.57;;;5.32;;
11651;SDS011;5882;48.818;9.114;2022-12-07T18:02:45;6.22;;;4.63;;
11651;SDS011;5882;48.818;9.114;2022-12-07T18:05:12;6.68;;;4.75;;
11651;SDS011;5882;48.818;9.114;2022-12-07T18:07:39;6.95;;;4.72;;
11651;SDS011;5882;48.818;9.114;2022-12-07T18:10:08;6.18;;;4.68;;
11651;SDS011;5882;48.818;9.114;2022-12-07T18:12:36;6.63;;;4.55;;
11651;SDS011;5882;48.818;9.114;2022-12-07T18:15:04;6.68;;;5.15;;
11651;SDS011;5882;48.818;9.114;2022-12-07T18:17:33;5.68;;;4.53;;
11651;SDS011;5882;48.818;9.114;2022-12-07T18:19:59;6.55;;;4.22;;
11651;SDS011;5882;48.818;9.114;2022-12-07T18:22:26;5.30;;;3.78;;
11651;SDS011;5882;48.818;9.114;2022-12-07T18:24:52;4.35;;;3.25;;
11651;SDS011;5882;48.818;9.114;2022-12-07T18:27:19;5.65;;;3.92;;
11651;SDS011;5882;48.818;9.114;2022-12-07T18:29:46;6.47;;;4.53;;
11651;SDS011;5882;48.818;9.114;2022-12-07T18:32:12;5.35;;;3.90;;
11651;SDS011;5882;48.818;9.114;2022-12-07T18:34:40;5.57;;;4.18;;
11651;SDS011;5882;48.818;9.114;2022-12-07T18:37:07;5.05;;;4.00;;
11651;SDS011;5882;48.818;9.114;2022-12-07T18:39:37;4.38;;;3.47;;
11651;SDS011;5882;48.818;9.114;2022-12-07T18:42:03;8.40;;;4.68;;
11651;SDS011;5882;48.818;9.114;2022-12-07T18:44:30;6.15;;;4.85;;
11651;SDS011;5882;48.818;9.114;2022-12-07T18:46:56;5.40;;;4.03;;
11651;SDS011;5882;48.818;9.114;2022-12-07T18:49:23;6.00;;;4.15;;
11651;SDS011;5882;48.818;9.114;2022-12-07T18:51:51;5.40;;;4.38;;
11651;SDS011;5882;48.818;9.114;2022-12-07T18:54:18;7.00;;;3.92;;
11651;SDS011;5882;48.818;9.114;2022-12-07T18:56:44;5.78;;;4.07;;